Terminal Aerodrome Forecast
Issued by NWS Lake Charles, LA

Home | Current Version | Previous Version | Text Only | Print | Product List | Glossary On
Versions: 1 2 3 4 5 6 7 8 9 10 11 12 13 14 15 16 17 18
000
FTUS44 KLCH 031139
TAFLFT
TAF
KLFT 031139Z 0312/0412 VRB03KT P6SM VCSH SCT025 BKN050
     FM031600 VRB05KT P6SM VCTS SCT035CB BKN050
      TEMPO 0318/0322 2SM TSRA BKN025CB
     FM040000 VRB03KT P6SM SCT025=

USA.gov is the U.S. government's official web portal to all federal, state and local government web resources and services.